sensor_id;sensor_type;location;lat;lon;timestamp;temperature;humidity
64396;DHT22;50717;53.360;6.290;2023-06-22T00:01:29;16.90;99.90
64396;DHT22;50717;53.360;6.290;2023-06-22T00:03:55;16.00;99.90
64396;DHT22;50717;53.360;6.290;2023-06-22T00:06:21;16.70;99.90
64396;DHT22;50717;53.360;6.290;2023-06-22T00:08:46;16.50;99.90
64396;DHT22;50717;53.360;6.290;2023-06-22T00:11:12;16.70;99.90
64396;DHT22;50717;53.360;6.290;2023-06-22T00:13:38;16.10;99.90
64396;DHT22;50717;53.360;6.290;2023-06-22T00:16:04;16.60;99.90
64396;DHT22;50717;53.360;6.290;2023-06-22T00:18:30;16.40;99.90
64396;DHT22;50717;53.360;6.290;2023-06-22T00:20:57;15.80;99.90
64396;DHT22;50717;53.360;6.290;2023-06-22T00:23:24;16.20;99.90
64396;DHT22;50717;53.360;6.290;2023-06-22T00:25:50;16.10;99.90
64396;DHT22;50717;53.360;6.290;2023-06-22T00:28:15;16.40;99.90
64396;DHT22;50717;53.360;6.290;2023-06-22T00:30:41;16.30;99.90
64396;DHT22;50717;53.360;6.290;2023-06-22T00:33:07;16.50;99.90
64396;DHT22;50717;53.360;6.290;2023-06-22T00:35:33;16.10;99.90
64396;DHT22;50717;53.360;6.290;2023-06-22T00:38:00;16.10;99.90
64396;DHT22;50717;53.360;6.290;2023-06-22T00:40:30;16.70;99.90
64396;DHT22;50717;53.360;6.290;2023-06-22T00:42:56;16.20;99.90
64396;DHT22;50717;53.360;6.290;2023-06-22T00:45:23;16.00;99.90
64396;DHT22;50717;53.360;6.290;2023-06-22T00:47:55;16.70;99.90
64396;DHT22;50717;53.360;6.290;2023-06-22T00:50:23;16.60;99.90
64396;DHT22;50717;53.360;6.290;2023-06-22T00:52:55;16.40;99.90
64396;DHT22;50717;53.360;6.290;2023-06-22T00:55:25;16.50;99.90
64396;DHT22;50717;53.360;6.290;2023-06-22T00:57:52;16.50;99.90
64396;DHT22;50717;53.360;6.290;2023-06-22T01:00:22;15.70;99.90
64396;DHT22;50717;53.360;6.290;2023-06-22T01:02:53;15.90;99.90
64396;DHT22;50717;53.360;6.290;2023-06-22T01:05:20;16.50;99.90
64396;DHT22;50717;53.360;6.290;2023-06-22T01:13:08;16.00;99.90
64396;DHT22;50717;53.360;6.290;2023-06-22T01:18:04;15.40;99.90
64396;DHT22;50717;53.360;6.290;2023-06-22T01:20:32;15.60;99.90
64396;DHT22;50717;53.360;6.290;2023-06-22T01:23:02;15.30;99.90
64396;DHT22;50717;53.360;6.290;2023-06-22T01:25:47;15.60;99.90
64396;DHT22;50717;53.360;6.290;2023-06-22T01:30:58;15.50;99.90
64396;DHT22;50717;53.360;6.290;2023-06-22T01:33:34;15.20;99.90
64396;DHT22;50717;53.360;6.290;2023-06-22T01:36:01;15.40;99.90
64396;DHT22;50717;53.360;6.290;2023-06-22T01:38:29;15.70;99.90
64396;DHT22;50717;53.360;6.290;2023-06-22T01:40:55;15.20;99.90
64396;DHT22;50717;53.360;6.290;2023-06-22T01:43:25;15.50;99.90
64396;DHT22;50717;53.360;6.290;2023-06-22T01:45:52;15.60;99.90
64396;DHT22;50717;53.360;6.290;2023-06-22T01:48:19;15.40;99.90
64396;DHT22;50717;53.360;6.290;2023-06-22T01:50:45;15.70;99.90
64396;DHT22;50717;53.360;6.290;2023-06-22T01:53:11;15.40;99.90
64396;DHT22;50717;53.360;6.290;2023-06-22T01:55:37;15.00;99.90
64396;DHT22;50717;53.360;6.290;2023-06-22T01:58:02;15.50;99.90
64396;DHT22;50717;53.360;6.290;2023-06-22T02:00:32;15.40;99.90
64396;DHT22;50717;53.360;6.290;2023-06-22T02:03:08;15.40;99.90
64396;DHT22;50717;53.360;6.290;2023-06-22T02:05:38;15.20;99.90
64396;DHT22;50717;53.360;6.290;2023-06-22T02:10:31;15.40;99.90
64396;DHT22;50717;53.360;6.290;2023-06-22T02:12:59;15.20;99.90
64396;DHT22;50717;53.360;6.290;2023-06-22T02:15:26;15.10;99.90
64396;DHT22;50717;53.360;6.290;2023-06-22T02:17:52;15.20;99.90
64396;DHT22;50717;53.360;6.290;2023-06-22T02:20:18;14.70;99.90
64396;DHT22;50717;53.360;6.290;2023-06-22T02:22:43;14.60;99.90
64396;DHT22;50717;53.360;6.290;2023-06-22T02:25:09;15.40;99.90
64396;DHT22;50717;53.360;6.290;2023-06-22T02:27:35;16.90;99.90
64396;DHT22;50717;53.360;6.290;2023-06-22T02:30:00;14.70;99.90
64396;DHT22;50717;53.360;6.290;2023-06-22T02:32:26;14.30;99.90
64396;DHT22;50717;53.360;6.290;2023-06-22T02:34:52;14.40;99.90
64396;DHT22;50717;53.360;6.290;2023-06-22T02:37:18;14.90;99.90
64396;DHT22;50717;53.360;6.290;2023-06-22T02:39:44;14.90;99.90
64396;DHT22;50717;53.360;6.290;2023-06-22T02:42:10;14.70;99.90
64396;DHT22;50717;53.360;6.290;2023-06-22T02:44:38;15.10;99.90
64396;DHT22;50717;53.360;6.290;2023-06-22T02:47:04;14.40;99.90
64396;DHT22;50717;53.360;6.290;2023-06-22T02:49:30;14.50;99.90
64396;DHT22;50717;53.360;6.290;2023-06-22T02:51:56;14.40;99.90
64396;DHT22;50717;53.360;6.290;2023-06-22T02:54:22;14.60;99.90
64396;DHT22;50717;53.360;6.290;2023-06-22T02:56:48;14.40;99.90
64396;DHT22;50717;53.360;6.290;2023-06-22T02:59:14;14.90;99.90
64396;DHT22;50717;53.360;6.290;2023-06-22T03:01:39;14.50;99.90
64396;DHT22;50717;53.360;6.290;2023-06-22T03:04:06;14.60;99.90
64396;DHT22;50717;53.360;6.290;2023-06-22T03:06:33;15.30;99.90
64396;DHT22;50717;53.360;6.290;2023-06-22T03:09:02;14.50;99.90
64396;DHT22;50717;53.360;6.290;2023-06-22T03:11:29;14.70;99.90
64396;DHT22;50717;53.360;6.290;2023-06-22T03:13:56;15.00;99.90
64396;DHT22;50717;53.360;6.290;2023-06-22T03:16:21;14.60;99.90
64396;DHT22;50717;53.360;6.290;2023-06-22T03:18:47;15.00;99.90
64396;DHT22;50717;53.360;6.290;2023-06-22T03:21:13;14.50;99.90
64396;DHT22;50717;53.360;6.290;2023-06-22T03:23:40;14.20;99.90
64396;DHT22;50717;53.360;6.290;2023-06-22T03:26:06;14.60;99.90
64396;DHT22;50717;53.360;6.290;2023-06-22T03:28:32;15.00;99.90
64396;DHT22;50717;53.360;6.290;2023-06-22T03:30:58;14.80;99.90
64396;DHT22;50717;53.360;6.290;2023-06-22T03:33:24;14.60;99.90
64396;DHT22;50717;53.360;6.290;2023-06-22T03:35:49;14.90;99.90
64396;DHT22;50717;53.360;6.290;2023-06-22T03:38:16;14.60;99.90
64396;DHT22;50717;53.360;6.290;2023-06-22T03:40:42;14.40;99.90
64396;DHT22;50717;53.360;6.290;2023-06-22T03:43:08;14.90;99.90
64396;DHT22;50717;53.360;6.290;2023-06-22T03:45:33;15.10;99.90
64396;DHT22;50717;53.360;6.290;2023-06-22T03:48:00;14.90;99.90
64396;DHT22;50717;53.360;6.290;2023-06-22T03:50:25;15.00;99.90
64396;DHT22;50717;53.360;6.290;2023-06-22T03:52:51;14.50;99.90
64396;DHT22;50717;53.360;6.290;2023-06-22T03:55:19;14.70;99.90
64396;DHT22;50717;53.360;6.290;2023-06-22T03:57:45;14.60;99.90
64396;DHT22;50717;53.360;6.290;2023-06-22T04:00:11;14.60;99.90
64396;DHT22;50717;53.360;6.290;2023-06-22T04:02:36;14.70;99.90
64396;DHT22;50717;53.360;6.290;2023-06-22T04:05:02;15.10;99.90
64396;DHT22;50717;53.360;6.290;2023-06-22T04:07:28;14.50;99.90
64396;DHT22;50717;53.360;6.290;2023-06-22T04:09:53;14.70;99.90
64396;DHT22;50717;53.360;6.290;2023-06-22T04:12:19;15.50;99.90
64396;DHT22;50717;53.360;6.290;2023-06-22T04:14:45;14.60;99.90
64396;DHT22;50717;53.360;6.290;2023-06-22T04:17:10;14.80;99.90
64396;DHT22;50717;53.360;6.290;2023-06-22T04:19:40;14.80;99.90
64396;DHT22;50717;53.360;6.290;2023-06-22T04:22:06;14.90;99.90
64396;DHT22;50717;53.360;6.290;2023-06-22T04:24:33;15.40;99.90
64396;DHT22;50717;53.360;6.290;2023-06-22T04:26:59;15.10;99.90
64396;DHT22;50717;53.360;6.290;2023-06-22T04:29:31;14.80;99.90
64396;DHT22;50717;53.360;6.290;2023-06-22T04:31:57;15.40;99.90
64396;DHT22;50717;53.360;6.290;2023-06-22T04:34:25;15.20;99.90
64396;DHT22;50717;53.360;6.290;2023-06-22T04:36:52;15.10;99.90
64396;DHT22;50717;53.360;6.290;2023-06-22T04:39:17;15.60;99.90
64396;DHT22;50717;53.360;6.290;2023-06-22T04:41:44;16.00;99.90
64396;DHT22;50717;53.360;6.290;2023-06-22T04:46:39;15.30;99.90
64396;DHT22;50717;53.360;6.290;2023-06-22T04:49:06;16.20;99.90
64396;DHT22;50717;53.360;6.290;2023-06-22T04:51:38;16.40;99.90
64396;DHT22;50717;53.360;6.290;2023-06-22T04:54:04;16.00;99.90
64396;DHT22;50717;53.360;6.290;2023-06-22T04:56:31;16.00;99.90
64396;DHT22;50717;53.360;6.290;2023-06-22T04:58:56;16.40;99.90
64396;DHT22;50717;53.360;6.290;2023-06-22T05:01:23;16.60;99.90
64396;DHT22;50717;53.360;6.290;2023-06-22T05:03:49;16.40;99.90
64396;DHT22;50717;53.360;6.290;2023-06-22T05:06:15;16.30;99.90
64396;DHT22;50717;53.360;6.290;2023-06-22T05:08:40;17.90;99.90
64396;DHT22;50717;53.360;6.290;2023-06-22T05:11:06;16.30;99.90
64396;DHT22;50717;53.360;6.290;2023-06-22T05:13:32;16.40;99.90
64396;DHT22;50717;53.360;6.290;2023-06-22T05:15:58;17.20;99.90
64396;DHT22;50717;53.360;6.290;2023-06-22T05:18:31;16.70;99.90
64396;DHT22;50717;53.360;6.290;2023-06-22T05:20:58;17.20;99.90
64396;DHT22;50717;53.360;6.290;2023-06-22T05:23:24;16.90;99.90
64396;DHT22;50717;53.360;6.290;2023-06-22T05:25:50;17.70;99.90
64396;DHT22;50717;53.360;6.290;2023-06-22T05:28:16;17.20;99.90
64396;DHT22;50717;53.360;6.290;2023-06-22T05:30:42;17.50;99.90
64396;DHT22;50717;53.360;6.290;2023-06-22T05:33:07;17.50;99.90
64396;DHT22;50717;53.360;6.290;2023-06-22T05:35:33;17.80;99.90
64396;DHT22;50717;53.360;6.290;2023-06-22T05:37:59;17.30;99.90
64396;DHT22;50717;53.360;6.290;2023-06-22T05:40:24;17.20;99.90
64396;DHT22;50717;53.360;6.290;2023-06-22T05:42:50;18.70;99.90
64396;DHT22;50717;53.360;6.290;2023-06-22T05:45:16;18.70;99.90
64396;DHT22;50717;53.360;6.290;2023-06-22T05:47:41;17.70;99.90
64396;DHT22;50717;53.360;6.290;2023-06-22T05:50:08;18.80;99.90
64396;DHT22;50717;53.360;6.290;2023-06-22T05:52:34;18.60;99.90
64396;DHT22;50717;53.360;6.290;2023-06-22T05:55:01;18.30;99.90
64396;DHT22;50717;53.360;6.290;2023-06-22T05:57:27;19.10;99.90
64396;DHT22;50717;53.360;6.290;2023-06-22T05:59:53;19.50;99.90
64396;DHT22;50717;53.360;6.290;2023-06-22T06:02:19;18.70;99.90
64396;DHT22;50717;53.360;6.290;2023-06-22T06:04:45;19.30;99.90
64396;DHT22;50717;53.360;6.290;2023-06-22T06:07:11;18.80;99.90
64396;DHT22;50717;53.360;6.290;2023-06-22T06:09:36;19.00;99.90
64396;DHT22;50717;53.360;6.290;2023-06-22T06:12:02;19.80;99.90
64396;DHT22;50717;53.360;6.290;2023-06-22T06:14:28;19.70;99.90
64396;DHT22;50717;53.360;6.290;2023-06-22T06:16:54;19.50;99.90
64396;DHT22;50717;53.360;6.290;2023-06-22T06:19:20;19.80;99.90
64396;DHT22;50717;53.360;6.290;2023-06-22T06:21:45;20.20;99.90
64396;DHT22;50717;53.360;6.290;2023-06-22T06:24:12;20.20;99.90
64396;DHT22;50717;53.360;6.290;2023-06-22T06:26:37;20.10;99.90
64396;DHT22;50717;53.360;6.290;2023-06-22T06:29:03;19.40;99.90
64396;DHT22;50717;53.360;6.290;2023-06-22T06:31:29;19.60;99.90
64396;DHT22;50717;53.360;6.290;2023-06-22T06:33:55;20.10;99.90
64396;DHT22;50717;53.360;6.290;2023-06-22T06:36:21;20.00;99.90
64396;DHT22;50717;53.360;6.290;2023-06-22T06:38:47;19.20;99.90
64396;DHT22;50717;53.360;6.290;2023-06-22T06:41:14;20.10;99.90
64396;DHT22;50717;53.360;6.290;2023-06-22T06:43:40;20.00;99.90
64396;DHT22;50717;53.360;6.290;2023-06-22T06:46:07;20.10;99.90
64396;DHT22;50717;53.360;6.290;2023-06-22T06:48:33;20.50;99.90
64396;DHT22;50717;53.360;6.290;2023-06-22T06:50:59;20.20;99.90
64396;DHT22;50717;53.360;6.290;2023-06-22T06:53:24;20.30;99.90
64396;DHT22;50717;53.360;6.290;2023-06-22T06:55:50;20.50;99.90
64396;DHT22;50717;53.360;6.290;2023-06-22T06:58:16;20.10;99.90
64396;DHT22;50717;53.360;6.290;2023-06-22T07:00:42;20.00;99.90
64396;DHT22;50717;53.360;6.290;2023-06-22T07:03:08;20.30;99.90
64396;DHT22;50717;53.360;6.290;2023-06-22T07:05:34;20.70;99.90
64396;DHT22;50717;53.360;6.290;2023-06-22T07:08:01;20.30;99.90
64396;DHT22;50717;53.360;6.290;2023-06-22T07:10:28;20.60;99.90
64396;DHT22;50717;53.360;6.290;2023-06-22T07:12:54;20.90;99.90
64396;DHT22;50717;53.360;6.290;2023-06-22T07:15:20;20.70;99.90
64396;DHT22;50717;53.360;6.290;2023-06-22T07:17:46;20.70;99.90
64396;DHT22;50717;53.360;6.290;2023-06-22T07:20:12;20.30;99.90
64396;DHT22;50717;53.360;6.290;2023-06-22T07:22:38;21.00;99.90
64396;DHT22;50717;53.360;6.290;2023-06-22T07:25:05;20.90;99.90
64396;DHT22;50717;53.360;6.290;2023-06-22T07:27:58;21.10;99.90
64396;DHT22;50717;53.360;6.290;2023-06-22T07:30:24;21.50;99.90
64396;DHT22;50717;53.360;6.290;2023-06-22T07:32:49;21.30;99.90
64396;DHT22;50717;53.360;6.290;2023-06-22T07:35:15;21.50;99.90
64396;DHT22;50717;53.360;6.290;2023-06-22T07:37:42;21.20;99.90
64396;DHT22;50717;53.360;6.290;2023-06-22T07:40:08;21.50;99.90
64396;DHT22;50717;53.360;6.290;2023-06-22T07:42:34;21.40;99.90
64396;DHT22;50717;53.360;6.290;2023-06-22T07:45:00;21.60;99.90
64396;DHT22;50717;53.360;6.290;2023-06-22T07:47:27;21.40;99.90
64396;DHT22;50717;53.360;6.290;2023-06-22T07:49:54;22.00;99.90
64396;DHT22;50717;53.360;6.290;2023-06-22T07:52:21;21.90;99.90
64396;DHT22;50717;53.360;6.290;2023-06-22T07:54:47;22.10;99.90
64396;DHT22;50717;53.360;6.290;2023-06-22T07:57:12;22.10;99.90
64396;DHT22;50717;53.360;6.290;2023-06-22T07:59:38;22.20;99.90
64396;DHT22;50717;53.360;6.290;2023-06-22T08:02:05;22.40;99.90
64396;DHT22;50717;53.360;6.290;2023-06-22T08:04:31;22.70;99.90
64396;DHT22;50717;53.360;6.290;2023-06-22T08:06:59;22.50;99.90
64396;DHT22;50717;53.360;6.290;2023-06-22T08:09:25;22.90;99.90
64396;DHT22;50717;53.360;6.290;2023-06-22T08:11:50;22.90;99.90
64396;DHT22;50717;53.360;6.290;2023-06-22T08:14:16;22.80;99.90
64396;DHT22;50717;53.360;6.290;2023-06-22T08:16:42;22.50;99.90
64396;DHT22;50717;53.360;6.290;2023-06-22T08:19:08;22.60;99.90
64396;DHT22;50717;53.360;6.290;2023-06-22T08:21:34;22.40;99.90
64396;DHT22;50717;53.360;6.290;2023-06-22T08:23:59;22.50;99.90
64396;DHT22;50717;53.360;6.290;2023-06-22T08:26:25;22.30;99.90
64396;DHT22;50717;53.360;6.290;2023-06-22T08:28:51;22.50;99.90
64396;DHT22;50717;53.360;6.290;2023-06-22T08:31:16;22.40;99.90
64396;DHT22;50717;53.360;6.290;2023-06-22T08:33:42;22.70;99.90
64396;DHT22;50717;53.360;6.290;2023-06-22T08:36:11;23.00;99.90
64396;DHT22;50717;53.360;6.290;2023-06-22T08:38:38;22.30;99.90
64396;DHT22;50717;53.360;6.290;2023-06-22T08:41:04;22.60;99.90
64396;DHT22;50717;53.360;6.290;2023-06-22T08:43:30;22.50;99.90
64396;DHT22;50717;53.360;6.290;2023-06-22T08:45:56;23.10;99.90
64396;DHT22;50717;53.360;6.290;2023-06-22T08:48:21;23.10;99.90
64396;DHT22;50717;53.360;6.290;2023-06-22T08:50:47;23.00;99.90
64396;DHT22;50717;53.360;6.290;2023-06-22T08:53:13;22.80;99.90
64396;DHT22;50717;53.360;6.290;2023-06-22T08:55:38;23.00;99.90
64396;DHT22;50717;53.360;6.290;2023-06-22T08:58:04;23.40;99.90
64396;DHT22;50717;53.360;6.290;2023-06-22T09:00:31;23.50;99.90
64396;DHT22;50717;53.360;6.290;2023-06-22T09:03:00;23.30;99.90
64396;DHT22;50717;53.360;6.290;2023-06-22T09:05:25;23.20;99.90
64396;DHT22;50717;53.360;6.290;2023-06-22T09:07:51;23.70;99.90
64396;DHT22;50717;53.360;6.290;2023-06-22T09:10:17;23.60;99.90
64396;DHT22;50717;53.360;6.290;2023-06-22T09:12:44;23.80;99.90
64396;DHT22;50717;53.360;6.290;2023-06-22T09:15:09;23.40;99.90
64396;DHT22;50717;53.360;6.290;2023-06-22T09:17:35;23.70;99.90
64396;DHT22;50717;53.360;6.290;2023-06-22T09:20:02;23.60;99.90
64396;DHT22;50717;53.360;6.290;2023-06-22T09:22:31;23.50;99.90
64396;DHT22;50717;53.360;6.290;2023-06-22T09:24:58;23.60;99.90
64396;DHT22;50717;53.360;6.290;2023-06-22T09:27:25;23.60;99.90
64396;DHT22;50717;53.360;6.290;2023-06-22T09:29:50;23.40;99.90
64396;DHT22;50717;53.360;6.290;2023-06-22T09:32:16;23.60;99.90
64396;DHT22;50717;53.360;6.290;2023-06-22T09:34:42;23.70;99.90
64396;DHT22;50717;53.360;6.290;2023-06-22T09:37:07;23.60;99.90
64396;DHT22;50717;53.360;6.290;2023-06-22T09:39:33;24.10;99.90
64396;DHT22;50717;53.360;6.290;2023-06-22T09:41:59;24.30;99.90
64396;DHT22;50717;53.360;6.290;2023-06-22T09:44:26;24.00;99.90
64396;DHT22;50717;53.360;6.290;2023-06-22T09:46:52;24.10;99.90
64396;DHT22;50717;53.360;6.290;2023-06-22T09:49:18;24.20;99.90
64396;DHT22;50717;53.360;6.290;2023-06-22T09:51:44;24.20;99.90
64396;DHT22;50717;53.360;6.290;2023-06-22T09:54:09;24.40;99.90
64396;DHT22;50717;53.360;6.290;2023-06-22T09:56:35;24.80;99.90
64396;DHT22;50717;53.360;6.290;2023-06-22T09:59:03;24.90;99.90
64396;DHT22;50717;53.360;6.290;2023-06-22T10:01:28;24.70;99.90
64396;DHT22;50717;53.360;6.290;2023-06-22T10:03:55;24.80;99.90
64396;DHT22;50717;53.360;6.290;2023-06-22T10:06:22;24.90;99.90
64396;DHT22;50717;53.360;6.290;2023-06-22T10:08:47;24.90;99.90
64396;DHT22;50717;53.360;6.290;2023-06-22T10:11:16;25.30;99.90
64396;DHT22;50717;53.360;6.290;2023-06-22T10:13:42;24.80;99.90
64396;DHT22;50717;53.360;6.290;2023-06-22T10:16:08;24.90;99.90
64396;DHT22;50717;53.360;6.290;2023-06-22T10:18:34;24.90;99.90
64396;DHT22;50717;53.360;6.290;2023-06-22T10:20:59;25.30;99.90
64396;DHT22;50717;53.360;6.290;2023-06-22T10:23:25;24.90;99.90
64396;DHT22;50717;53.360;6.290;2023-06-22T10:25:51;24.90;99.90
64396;DHT22;50717;53.360;6.290;2023-06-22T10:28:17;25.30;99.90
64396;DHT22;50717;53.360;6.290;2023-06-22T10:30:43;25.70;99.90
64396;DHT22;50717;53.360;6.290;2023-06-22T10:33:10;25.70;99.90
64396;DHT22;50717;53.360;6.290;2023-06-22T10:35:37;25.90;99.90
64396;DHT22;50717;53.360;6.290;2023-06-22T10:38:04;25.70;99.90
64396;DHT22;50717;53.360;6.290;2023-06-22T10:40:30;25.50;99.90
64396;DHT22;50717;53.360;6.290;2023-06-22T10:42:55;25.50;99.90
64396;DHT22;50717;53.360;6.290;2023-06-22T10:45:21;25.80;99.90
64396;DHT22;50717;53.360;6.290;2023-06-22T10:47:47;25.70;99.90
64396;DHT22;50717;53.360;6.290;2023-06-22T10:50:13;26.00;99.90
64396;DHT22;50717;53.360;6.290;2023-06-22T10:52:39;25.60;99.90
64396;DHT22;50717;53.360;6.290;2023-06-22T10:55:05;25.80;99.90
64396;DHT22;50717;53.360;6.290;2023-06-22T10:57:31;25.30;99.90
64396;DHT22;50717;53.360;6.290;2023-06-22T10:59:57;25.70;99.90
64396;DHT22;50717;53.360;6.290;2023-06-22T11:02:23;25.50;99.90
64396;DHT22;50717;53.360;6.290;2023-06-22T11:04:50;25.40;99.90
64396;DHT22;50717;53.360;6.290;2023-06-22T11:07:16;25.70;99.90
64396;DHT22;50717;53.360;6.290;2023-06-22T11:09:43;26.00;99.90
64396;DHT22;50717;53.360;6.290;2023-06-22T11:12:09;25.70;99.90
64396;DHT22;50717;53.360;6.290;2023-06-22T11:14:34;25.50;99.90
64396;DHT22;50717;53.360;6.290;2023-06-22T11:17:00;25.70;99.90
64396;DHT22;50717;53.360;6.290;2023-06-22T11:19:26;25.60;99.90
64396;DHT22;50717;53.360;6.290;2023-06-22T11:21:52;25.50;99.90
64396;DHT22;50717;53.360;6.290;2023-06-22T11:24:17;25.20;99.90
64396;DHT22;50717;53.360;6.290;2023-06-22T11:26:43;25.40;99.90
64396;DHT22;50717;53.360;6.290;2023-06-22T11:29:09;25.70;99.90
64396;DHT22;50717;53.360;6.290;2023-06-22T11:31:35;25.80;99.90
64396;DHT22;50717;53.360;6.290;2023-06-22T11:34:01;25.80;99.90
64396;DHT22;50717;53.360;6.290;2023-06-22T11:36:28;25.80;99.90
64396;DHT22;50717;53.360;6.290;2023-06-22T11:38:54;25.80;99.90
64396;DHT22;50717;53.360;6.290;2023-06-22T11:41:20;25.50;99.90
64396;DHT22;50717;53.360;6.290;2023-06-22T11:43:46;25.70;99.90
64396;DHT22;50717;53.360;6.290;2023-06-22T11:46:11;25.90;99.90
64396;DHT22;50717;53.360;6.290;2023-06-22T11:48:37;26.30;99.90
64396;DHT22;50717;53.360;6.290;2023-06-22T11:51:03;26.40;99.90
64396;DHT22;50717;53.360;6.290;2023-06-22T11:53:29;25.80;99.90
64396;DHT22;50717;53.360;6.290;2023-06-22T11:55:55;25.90;99.90
64396;DHT22;50717;53.360;6.290;2023-06-22T11:58:22;25.50;99.90
64396;DHT22;50717;53.360;6.290;2023-06-22T12:00:48;25.70;99.90
64396;DHT22;50717;53.360;6.290;2023-06-22T12:03:14;25.40;99.90
64396;DHT22;50717;53.360;6.290;2023-06-22T12:05:42;25.10;99.90
64396;DHT22;50717;53.360;6.290;2023-06-22T12:08:08;25.20;99.90
64396;DHT22;50717;53.360;6.290;2023-06-22T12:10:34;25.20;99.90
64396;DHT22;50717;53.360;6.290;2023-06-22T12:13:00;25.10;99.90
64396;DHT22;50717;53.360;6.290;2023-06-22T12:15:26;23.30;99.90
64396;DHT22;50717;53.360;6.290;2023-06-22T12:17:52;25.80;99.90
64396;DHT22;50717;53.360;6.290;2023-06-22T12:20:18;25.80;99.90
64396;DHT22;50717;53.360;6.290;2023-06-22T12:22:44;25.70;99.90
64396;DHT22;50717;53.360;6.290;2023-06-22T12:25:11;25.70;99.90
64396;DHT22;50717;53.360;6.290;2023-06-22T12:27:37;25.50;99.90
64396;DHT22;50717;53.360;6.290;2023-06-22T12:30:03;25.20;99.90
64396;DHT22;50717;53.360;6.290;2023-06-22T12:32:29;25.50;99.90
64396;DHT22;50717;53.360;6.290;2023-06-22T12:34:56;25.20;99.90
64396;DHT22;50717;53.360;6.290;2023-06-22T12:37:22;24.90;99.90
64396;DHT22;50717;53.360;6.290;2023-06-22T12:39:48;25.10;99.90
64396;DHT22;50717;53.360;6.290;2023-06-22T12:42:15;25.00;99.90
64396;DHT22;50717;53.360;6.290;2023-06-22T12:44:41;24.70;99.90
64396;DHT22;50717;53.360;6.290;2023-06-22T12:47:07;24.60;99.90
64396;DHT22;50717;53.360;6.290;2023-06-22T12:49:34;24.40;99.90
64396;DHT22;50717;53.360;6.290;2023-06-22T12:52:01;24.40;99.90
64396;DHT22;50717;53.360;6.290;2023-06-22T12:54:26;24.50;99.90
64396;DHT22;50717;53.360;6.290;2023-06-22T12:56:53;24.50;99.90
64396;DHT22;50717;53.360;6.290;2023-06-22T12:59:19;24.10;99.90
64396;DHT22;50717;53.360;6.290;2023-06-22T13:01:45;24.10;99.90
64396;DHT22;50717;53.360;6.290;2023-06-22T13:04:11;24.10;99.90
64396;DHT22;50717;53.360;6.290;2023-06-22T13:06:41;24.00;99.90
64396;DHT22;50717;53.360;6.290;2023-06-22T13:09:06;23.90;99.90
64396;DHT22;50717;53.360;6.290;2023-06-22T13:11:32;23.80;99.90
64396;DHT22;50717;53.360;6.290;2023-06-22T13:13:58;23.80;99.90
64396;DHT22;50717;53.360;6.290;2023-06-22T13:16:23;24.00;99.90
64396;DHT22;50717;53.360;6.290;2023-06-22T13:18:49;23.90;99.90
64396;DHT22;50717;53.360;6.290;2023-06-22T13:21:15;23.70;99.90
64396;DHT22;50717;53.360;6.290;2023-06-22T13:23:40;23.80;99.90
64396;DHT22;50717;53.360;6.290;2023-06-22T13:26:07;23.80;99.90
64396;DHT22;50717;53.360;6.290;2023-06-22T13:28:33;23.80;99.90
64396;DHT22;50717;53.360;6.290;2023-06-22T13:30:59;23.60;99.90
64396;DHT22;50717;53.360;6.290;2023-06-22T13:33:24;23.90;99.90
64396;DHT22;50717;53.360;6.290;2023-06-22T13:35:50;23.60;99.90
64396;DHT22;50717;53.360;6.290;2023-06-22T13:38:16;23.70;99.90
64396;DHT22;50717;53.360;6.290;2023-06-22T13:40:43;23.80;99.90
64396;DHT22;50717;53.360;6.290;2023-06-22T13:43:08;23.50;99.90
64396;DHT22;50717;53.360;6.290;2023-06-22T13:45:34;23.60;99.90
64396;DHT22;50717;53.360;6.290;2023-06-22T13:48:00;23.60;99.90
64396;DHT22;50717;53.360;6.290;2023-06-22T13:50:26;23.30;99.90
64396;DHT22;50717;53.360;6.290;2023-06-22T13:52:51;23.60;99.90
64396;DHT22;50717;53.360;6.290;2023-06-22T13:55:17;23.90;99.90
64396;DHT22;50717;53.360;6.290;2023-06-22T13:57:45;23.50;99.90
64396;DHT22;50717;53.360;6.290;2023-06-22T14:00:11;23.30;99.90
64396;DHT22;50717;53.360;6.290;2023-06-22T14:02:39;23.60;99.90
64396;DHT22;50717;53.360;6.290;2023-06-22T14:05:07;23.50;99.90
64396;DHT22;50717;53.360;6.290;2023-06-22T14:07:33;23.00;99.90
64396;DHT22;50717;53.360;6.290;2023-06-22T14:10:00;23.30;99.90
64396;DHT22;50717;53.360;6.290;2023-06-22T14:12:26;23.00;99.90
64396;DHT22;50717;53.360;6.290;2023-06-22T14:14:51;23.10;99.90
64396;DHT22;50717;53.360;6.290;2023-06-22T14:17:18;22.70;99.90
64396;DHT22;50717;53.360;6.290;2023-06-22T14:19:49;22.80;99.90
64396;DHT22;50717;53.360;6.290;2023-06-22T14:22:15;23.00;99.90
64396;DHT22;50717;53.360;6.290;2023-06-22T14:24:41;22.60;99.90
64396;DHT22;50717;53.360;6.290;2023-06-22T14:27:06;22.80;99.90
64396;DHT22;50717;53.360;6.290;2023-06-22T14:29:34;22.50;99.90
64396;DHT22;50717;53.360;6.290;2023-06-22T14:32:00;22.50;99.90
64396;DHT22;50717;53.360;6.290;2023-06-22T14:34:25;22.70;99.90
64396;DHT22;50717;53.360;6.290;2023-06-22T14:36:51;22.50;99.90
64396;DHT22;50717;53.360;6.290;2023-06-22T14:39:17;22.50;99.90
64396;DHT22;50717;53.360;6.290;2023-06-22T14:41:42;22.00;99.90
64396;DHT22;50717;53.360;6.290;2023-06-22T14:44:08;22.40;99.90
64396;DHT22;50717;53.360;6.290;2023-06-22T14:46:34;22.40;99.90
64396;DHT22;50717;53.360;6.290;2023-06-22T14:49:00;22.40;99.90
64396;DHT22;50717;53.360;6.290;2023-06-22T14:51:26;22.40;99.90
64396;DHT22;50717;53.360;6.290;2023-06-22T14:53:52;22.30;99.90
64396;DHT22;50717;53.360;6.290;2023-06-22T14:56:18;22.20;99.90
64396;DHT22;50717;53.360;6.290;2023-06-22T14:58:44;22.20;99.90
64396;DHT22;50717;53.360;6.290;2023-06-22T15:01:13;22.50;99.90
64396;DHT22;50717;53.360;6.290;2023-06-22T15:03:39;22.60;99.90
64396;DHT22;50717;53.360;6.290;2023-06-22T15:06:05;22.30;99.90
64396;DHT22;50717;53.360;6.290;2023-06-22T15:08:30;22.60;99.90
64396;DHT22;50717;53.360;6.290;2023-06-22T15:10:59;22.40;99.90
64396;DHT22;50717;53.360;6.290;2023-06-22T15:13:26;22.30;99.90
64396;DHT22;50717;53.360;6.290;2023-06-22T15:15:53;22.60;99.90
64396;DHT22;50717;53.360;6.290;2023-06-22T15:18:19;22.50;99.90
64396;DHT22;50717;53.360;6.290;2023-06-22T15:20:44;22.50;99.90
64396;DHT22;50717;53.360;6.290;2023-06-22T15:23:11;22.20;99.90
64396;DHT22;50717;53.360;6.290;2023-06-22T15:25:37;22.30;99.90
64396;DHT22;50717;53.360;6.290;2023-06-22T15:28:03;22.20;99.90
64396;DHT22;50717;53.360;6.290;2023-06-22T15:30:29;22.10;99.90
64396;DHT22;50717;53.360;6.290;2023-06-22T15:32:56;22.40;99.90
64396;DHT22;50717;53.360;6.290;2023-06-22T15:35:22;21.80;99.90
64396;DHT22;50717;53.360;6.290;2023-06-22T15:37:48;22.10;99.90
64396;DHT22;50717;53.360;6.290;2023-06-22T15:40:14;21.90;99.90